sensor_id;sensor_type;location;lat;lon;timestamp;temperature;humidity
20526;DHT22;10421;49.142;9.232;2023-12-04T00:00:03;1.70;90.60
20526;DHT22;10421;49.142;9.232;2023-12-04T00:02:30;1.70;90.60
20526;DHT22;10421;49.142;9.232;2023-12-04T00:04:57;1.60;90.60
20526;DHT22;10421;49.142;9.232;2023-12-04T00:07:23;1.60;90.60
20526;DHT22;10421;49.142;9.232;2023-12-04T00:09:50;1.60;90.60
20526;DHT22;10421;49.142;9.232;2023-12-04T00:12:17;1.60;90.70
20526;DHT22;10421;49.142;9.232;2023-12-04T00:14:43;1.60;90.80
20526;DHT22;10421;49.142;9.232;2023-12-04T00:17:11;1.60;90.80
20526;DHT22;10421;49.142;9.232;2023-12-04T00:19:38;1.60;90.80
20526;DHT22;10421;49.142;9.232;2023-12-04T00:22:05;1.60;90.80
20526;DHT22;10421;49.142;9.232;2023-12-04T00:24:31;1.60;90.70
20526;DHT22;10421;49.142;9.232;2023-12-04T00:26:58;1.60;90.70
20526;DHT22;10421;49.142;9.232;2023-12-04T00:29:25;1.60;90.80
20526;DHT22;10421;49.142;9.232;2023-12-04T00:31:52;1.50;90.80
20526;DHT22;10421;49.142;9.232;2023-12-04T00:34:20;1.50;90.80
20526;DHT22;10421;49.142;9.232;2023-12-04T00:36:47;1.40;90.80
20526;DHT22;10421;49.142;9.232;2023-12-04T00:39:13;1.40;90.90
20526;DHT22;10421;49.142;9.232;2023-12-04T00:41:40;1.40;91.00
20526;DHT22;10421;49.142;9.232;2023-12-04T00:44:07;1.40;91.00
20526;DHT22;10421;49.142;9.232;2023-12-04T00:46:33;1.40;91.00
20526;DHT22;10421;49.142;9.232;2023-12-04T00:49:00;1.40;91.00
20526;DHT22;10421;49.142;9.232;2023-12-04T00:51:28;1.40;91.00
20526;DHT22;10421;49.142;9.232;2023-12-04T00:53:55;1.40;91.00
20526;DHT22;10421;49.142;9.232;2023-12-04T00:56:21;1.40;90.90
20526;DHT22;10421;49.142;9.232;2023-12-04T00:58:48;1.30;90.90
20526;DHT22;10421;49.142;9.232;2023-12-04T01:01:15;1.30;90.80
20526;DHT22;10421;49.142;9.232;2023-12-04T01:03:41;1.30;90.70
20526;DHT22;10421;49.142;9.232;2023-12-04T01:06:10;1.20;90.80
20526;DHT22;10421;49.142;9.232;2023-12-04T01:08:47;1.20;90.90
20526;DHT22;10421;49.142;9.232;2023-12-04T01:11:14;1.10;90.90
20526;DHT22;10421;49.142;9.232;2023-12-04T01:13:41;1.20;91.00
20526;DHT22;10421;49.142;9.232;2023-12-04T01:16:08;1.10;91.00
20526;DHT22;10421;49.142;9.232;2023-12-04T01:18:35;1.10;91.10
20526;DHT22;10421;49.142;9.232;2023-12-04T01:21:02;1.10;91.10
20526;DHT22;10421;49.142;9.232;2023-12-04T01:23:29;1.10;91.10
20526;DHT22;10421;49.142;9.232;2023-12-04T01:25:57;1.10;91.10
20526;DHT22;10421;49.142;9.232;2023-12-04T01:28:24;1.10;91.10
20526;DHT22;10421;49.142;9.232;2023-12-04T01:30:50;1.10;91.10
20526;DHT22;10421;49.142;9.232;2023-12-04T01:33:17;1.10;91.20
20526;DHT22;10421;49.142;9.232;2023-12-04T01:35:44;1.10;91.20
20526;DHT22;10421;49.142;9.232;2023-12-04T01:38:10;1.00;91.10
20526;DHT22;10421;49.142;9.232;2023-12-04T01:40:37;1.00;91.20
20526;DHT22;10421;49.142;9.232;2023-12-04T01:43:05;1.00;91.20
20526;DHT22;10421;49.142;9.232;2023-12-04T01:45:32;1.00;91.30
20526;DHT22;10421;49.142;9.232;2023-12-04T01:47:58;1.00;91.40
20526;DHT22;10421;49.142;9.232;2023-12-04T01:50:25;1.00;91.40
20526;DHT22;10421;49.142;9.232;2023-12-04T01:52:53;1.00;91.50
20526;DHT22;10421;49.142;9.232;2023-12-04T01:55:20;1.10;91.50
20526;DHT22;10421;49.142;9.232;2023-12-04T01:57:47;1.10;91.40
20526;DHT22;10421;49.142;9.232;2023-12-04T02:00:16;1.00;91.20
20526;DHT22;10421;49.142;9.232;2023-12-04T02:02:46;1.00;91.20
20526;DHT22;10421;49.142;9.232;2023-12-04T02:05:14;1.00;91.20
20526;DHT22;10421;49.142;9.232;2023-12-04T02:07:41;0.90;91.20
20526;DHT22;10421;49.142;9.232;2023-12-04T02:10:09;0.90;91.30
20526;DHT22;10421;49.142;9.232;2023-12-04T02:12:36;0.90;91.30
20526;DHT22;10421;49.142;9.232;2023-12-04T02:15:03;0.90;91.40
20526;DHT22;10421;49.142;9.232;2023-12-04T02:17:32;0.90;91.40
20526;DHT22;10421;49.142;9.232;2023-12-04T02:19:59;0.90;91.40
20526;DHT22;10421;49.142;9.232;2023-12-04T02:22:26;0.90;91.40
20526;DHT22;10421;49.142;9.232;2023-12-04T02:24:54;0.90;91.30
20526;DHT22;10421;49.142;9.232;2023-12-04T02:27:27;0.80;91.60
20526;DHT22;10421;49.142;9.232;2023-12-04T02:29:58;0.80;91.40
20526;DHT22;10421;49.142;9.232;2023-12-04T02:32:28;0.70;91.40
20526;DHT22;10421;49.142;9.232;2023-12-04T02:34:56;0.70;91.50
20526;DHT22;10421;49.142;9.232;2023-12-04T02:37:25;0.70;91.50
20526;DHT22;10421;49.142;9.232;2023-12-04T02:39:54;0.70;91.50
20526;DHT22;10421;49.142;9.232;2023-12-04T02:42:21;0.70;91.60
20526;DHT22;10421;49.142;9.232;2023-12-04T02:44:50;0.70;91.60
20526;DHT22;10421;49.142;9.232;2023-12-04T02:47:17;0.70;91.70
20526;DHT22;10421;49.142;9.232;2023-12-04T02:49:44;0.70;91.70
20526;DHT22;10421;49.142;9.232;2023-12-04T02:52:10;0.70;91.70
20526;DHT22;10421;49.142;9.232;2023-12-04T02:54:37;0.70;91.70
20526;DHT22;10421;49.142;9.232;2023-12-04T02:57:05;0.70;91.70
20526;DHT22;10421;49.142;9.232;2023-12-04T02:59:32;0.70;91.70
20526;DHT22;10421;49.142;9.232;2023-12-04T03:01:58;0.70;91.80
20526;DHT22;10421;49.142;9.232;2023-12-04T03:04:27;0.70;91.80
20526;DHT22;10421;49.142;9.232;2023-12-04T03:06:54;0.70;91.80
20526;DHT22;10421;49.142;9.232;2023-12-04T03:09:21;0.60;91.80
20526;DHT22;10421;49.142;9.232;2023-12-04T03:11:47;0.60;91.90
20526;DHT22;10421;49.142;9.232;2023-12-04T03:14:15;0.60;91.90
20526;DHT22;10421;49.142;9.232;2023-12-04T03:16:42;0.70;92.00
20526;DHT22;10421;49.142;9.232;2023-12-04T03:19:09;0.70;92.00
20526;DHT22;10421;49.142;9.232;2023-12-04T03:21:35;0.70;92.10
20526;DHT22;10421;49.142;9.232;2023-12-04T03:24:02;0.70;92.00
20526;DHT22;10421;49.142;9.232;2023-12-04T03:26:29;0.70;92.00
20526;DHT22;10421;49.142;9.232;2023-12-04T03:28:56;0.70;91.90
20526;DHT22;10421;49.142;9.232;2023-12-04T03:31:24;0.70;91.90
20526;DHT22;10421;49.142;9.232;2023-12-04T03:33:51;0.70;91.90
20526;DHT22;10421;49.142;9.232;2023-12-04T03:36:18;0.60;91.90
20526;DHT22;10421;49.142;9.232;2023-12-04T03:38:45;0.60;92.00
20526;DHT22;10421;49.142;9.232;2023-12-04T03:41:15;0.60;92.10
20526;DHT22;10421;49.142;9.232;2023-12-04T03:43:42;0.60;92.10
20526;DHT22;10421;49.142;9.232;2023-12-04T03:46:08;0.60;92.20
20526;DHT22;10421;49.142;9.232;2023-12-04T03:48:37;0.60;92.20
20526;DHT22;10421;49.142;9.232;2023-12-04T03:51:05;0.70;92.20
20526;DHT22;10421;49.142;9.232;2023-12-04T03:53:32;0.70;92.20
20526;DHT22;10421;49.142;9.232;2023-12-04T03:55:58;0.70;92.20
20526;DHT22;10421;49.142;9.232;2023-12-04T03:58:25;0.70;92.20
20526;DHT22;10421;49.142;9.232;2023-12-04T04:00:52;0.70;92.20
20526;DHT22;10421;49.142;9.232;2023-12-04T04:03:19;0.60;92.10
20526;DHT22;10421;49.142;9.232;2023-12-04T04:05:47;0.60;92.10
20526;DHT22;10421;49.142;9.232;2023-12-04T04:08:13;0.60;92.20
20526;DHT22;10421;49.142;9.232;2023-12-04T04:10:40;0.50;92.20
20526;DHT22;10421;49.142;9.232;2023-12-04T04:13:07;0.50;92.30
20526;DHT22;10421;49.142;9.232;2023-12-04T04:15:34;0.50;92.40
20526;DHT22;10421;49.142;9.232;2023-12-04T04:18:00;0.50;92.40
20526;DHT22;10421;49.142;9.232;2023-12-04T04:20:27;0.50;92.50
20526;DHT22;10421;49.142;9.232;2023-12-04T04:22:55;0.50;92.60
20526;DHT22;10421;49.142;9.232;2023-12-04T04:25:22;0.50;92.60
20526;DHT22;10421;49.142;9.232;2023-12-04T04:27:49;0.50;92.60
20526;DHT22;10421;49.142;9.232;2023-12-04T04:30:16;0.50;92.70
20526;DHT22;10421;49.142;9.232;2023-12-04T04:32:43;0.60;92.70
20526;DHT22;10421;49.142;9.232;2023-12-04T04:35:09;0.60;92.70
20526;DHT22;10421;49.142;9.232;2023-12-04T04:37:36;0.60;92.70
20526;DHT22;10421;49.142;9.232;2023-12-04T04:40:05;0.60;92.70
20526;DHT22;10421;49.142;9.232;2023-12-04T04:42:32;0.60;92.70
20526;DHT22;10421;49.142;9.232;2023-12-04T04:44:59;0.70;92.70
20526;DHT22;10421;49.142;9.232;2023-12-04T04:47:26;0.80;92.80
20526;DHT22;10421;49.142;9.232;2023-12-04T04:49:53;0.80;92.80
20526;DHT22;10421;49.142;9.232;2023-12-04T04:52:19;0.80;92.80
20526;DHT22;10421;49.142;9.232;2023-12-04T04:54:46;0.90;92.80
20526;DHT22;10421;49.142;9.232;2023-12-04T04:57:14;0.80;92.60
20526;DHT22;10421;49.142;9.232;2023-12-04T04:59:40;0.80;92.70
20526;DHT22;10421;49.142;9.232;2023-12-04T05:02:07;0.80;92.70
20526;DHT22;10421;49.142;9.232;2023-12-04T05:04:34;0.80;92.80
20526;DHT22;10421;49.142;9.232;2023-12-04T05:07:01;0.90;92.90
20526;DHT22;10421;49.142;9.232;2023-12-04T05:09:27;0.80;92.80
20526;DHT22;10421;49.142;9.232;2023-12-04T05:11:54;0.80;92.90
20526;DHT22;10421;49.142;9.232;2023-12-04T05:14:22;0.80;92.90
20526;DHT22;10421;49.142;9.232;2023-12-04T05:16:49;0.90;93.10
20526;DHT22;10421;49.142;9.232;2023-12-04T05:19:15;0.90;93.10
20526;DHT22;10421;49.142;9.232;2023-12-04T05:21:42;0.90;93.00
20526;DHT22;10421;49.142;9.232;2023-12-04T05:24:09;0.80;92.80
20526;DHT22;10421;49.142;9.232;2023-12-04T05:26:35;0.80;92.90
20526;DHT22;10421;49.142;9.232;2023-12-04T05:29:02;0.80;92.90
20526;DHT22;10421;49.142;9.232;2023-12-04T05:31:30;0.80;92.90
20526;DHT22;10421;49.142;9.232;2023-12-04T05:33:57;0.70;92.90
20526;DHT22;10421;49.142;9.232;2023-12-04T05:36:23;0.70;93.00
20526;DHT22;10421;49.142;9.232;2023-12-04T05:38:50;0.70;93.00
20526;DHT22;10421;49.142;9.232;2023-12-04T05:41:19;0.70;93.00
20526;DHT22;10421;49.142;9.232;2023-12-04T05:43:45;0.70;93.10
20526;DHT22;10421;49.142;9.232;2023-12-04T05:46:12;0.80;93.10
20526;DHT22;10421;49.142;9.232;2023-12-04T05:48:41;0.70;93.00
20526;DHT22;10421;49.142;9.232;2023-12-04T05:51:07;0.70;93.00
20526;DHT22;10421;49.142;9.232;2023-12-04T05:53:34;0.70;93.00
20526;DHT22;10421;49.142;9.232;2023-12-04T05:56:01;0.70;93.00
20526;DHT22;10421;49.142;9.232;2023-12-04T05:58:28;0.60;93.10
20526;DHT22;10421;49.142;9.232;2023-12-04T06:00:54;0.70;93.30
20526;DHT22;10421;49.142;9.232;2023-12-04T06:03:21;0.70;93.30
20526;DHT22;10421;49.142;9.232;2023-12-04T06:05:49;0.70;93.30
20526;DHT22;10421;49.142;9.232;2023-12-04T06:08:16;0.70;93.40
20526;DHT22;10421;49.142;9.232;2023-12-04T06:10:43;0.80;93.40
20526;DHT22;10421;49.142;9.232;2023-12-04T06:13:09;0.80;93.40
20526;DHT22;10421;49.142;9.232;2023-12-04T06:15:36;0.80;93.30
20526;DHT22;10421;49.142;9.232;2023-12-04T06:18:03;0.90;93.30
20526;DHT22;10421;49.142;9.232;2023-12-04T06:20:30;0.90;93.30
20526;DHT22;10421;49.142;9.232;2023-12-04T06:22:58;1.00;93.30
20526;DHT22;10421;49.142;9.232;2023-12-04T06:25:26;1.00;93.30
20526;DHT22;10421;49.142;9.232;2023-12-04T06:27:53;1.00;93.20
20526;DHT22;10421;49.142;9.232;2023-12-04T06:30:20;1.00;93.20
20526;DHT22;10421;49.142;9.232;2023-12-04T06:32:48;1.10;93.30
20526;DHT22;10421;49.142;9.232;2023-12-04T06:35:15;1.10;93.30
20526;DHT22;10421;49.142;9.232;2023-12-04T06:37:43;1.10;93.20
20526;DHT22;10421;49.142;9.232;2023-12-04T06:40:12;1.10;93.60
20526;DHT22;10421;49.142;9.232;2023-12-04T06:42:39;1.10;93.30
20526;DHT22;10421;49.142;9.232;2023-12-04T06:45:08;1.10;93.30
20526;DHT22;10421;49.142;9.232;2023-12-04T06:47:36;1.10;93.40
20526;DHT22;10421;49.142;9.232;2023-12-04T06:50:04;1.00;93.40
20526;DHT22;10421;49.142;9.232;2023-12-04T06:52:31;1.00;93.50
20526;DHT22;10421;49.142;9.232;2023-12-04T06:54:58;1.00;93.50
20526;DHT22;10421;49.142;9.232;2023-12-04T06:57:26;0.90;93.60
20526;DHT22;10421;49.142;9.232;2023-12-04T06:59:52;0.90;93.60
20526;DHT22;10421;49.142;9.232;2023-12-04T07:02:19;0.80;93.40
20526;DHT22;10421;49.142;9.232;2023-12-04T07:04:46;0.80;93.40
20526;DHT22;10421;49.142;9.232;2023-12-04T07:07:12;0.80;93.40
20526;DHT22;10421;49.142;9.232;2023-12-04T07:09:39;0.70;93.40
20526;DHT22;10421;49.142;9.232;2023-12-04T07:12:06;0.60;93.60
20526;DHT22;10421;49.142;9.232;2023-12-04T07:14:34;0.60;93.60
20526;DHT22;10421;49.142;9.232;2023-12-04T07:17:01;0.60;94.00
20526;DHT22;10421;49.142;9.232;2023-12-04T07:19:27;0.60;93.80
20526;DHT22;10421;49.142;9.232;2023-12-04T07:21:55;0.60;93.80
20526;DHT22;10421;49.142;9.232;2023-12-04T07:24:22;0.70;93.80
20526;DHT22;10421;49.142;9.232;2023-12-04T07:26:48;0.70;93.90
20526;DHT22;10421;49.142;9.232;2023-12-04T07:29:15;0.70;93.90
20526;DHT22;10421;49.142;9.232;2023-12-04T07:31:43;0.70;93.90
20526;DHT22;10421;49.142;9.232;2023-12-04T07:34:10;0.80;94.10
20526;DHT22;10421;49.142;9.232;2023-12-04T07:36:37;0.80;94.10
20526;DHT22;10421;49.142;9.232;2023-12-04T07:39:03;0.80;94.10
20526;DHT22;10421;49.142;9.232;2023-12-04T07:41:32;0.90;94.10
20526;DHT22;10421;49.142;9.232;2023-12-04T07:43:58;0.90;94.10
20526;DHT22;10421;49.142;9.232;2023-12-04T07:46:25;1.00;94.10
20526;DHT22;10421;49.142;9.232;2023-12-04T07:48:53;1.00;94.10
20526;DHT22;10421;49.142;9.232;2023-12-04T07:51:20;1.00;93.90
20526;DHT22;10421;49.142;9.232;2023-12-04T07:53:47;1.00;93.90
20526;DHT22;10421;49.142;9.232;2023-12-04T07:56:13;1.10;94.00
20526;DHT22;10421;49.142;9.232;2023-12-04T07:58:40;1.10;94.00
20526;DHT22;10421;49.142;9.232;2023-12-04T08:01:07;1.10;93.90
20526;DHT22;10421;49.142;9.232;2023-12-04T08:03:34;1.20;93.90
20526;DHT22;10421;49.142;9.232;2023-12-04T08:06:03;1.20;93.90
20526;DHT22;10421;49.142;9.232;2023-12-04T08:08:29;1.20;93.80
20526;DHT22;10421;49.142;9.232;2023-12-04T08:10:57;1.30;93.80
20526;DHT22;10421;49.142;9.232;2023-12-04T08:13:24;1.30;93.70
20526;DHT22;10421;49.142;9.232;2023-12-04T08:15:51;1.30;93.60
20526;DHT22;10421;49.142;9.232;2023-12-04T08:18:17;1.40;93.60
20526;DHT22;10421;49.142;9.232;2023-12-04T08:20:44;1.50;93.60
20526;DHT22;10421;49.142;9.232;2023-12-04T08:23:12;1.50;93.40
20526;DHT22;10421;49.142;9.232;2023-12-04T08:25:39;1.60;93.20
20526;DHT22;10421;49.142;9.232;2023-12-04T08:28:05;1.60;93.10
20526;DHT22;10421;49.142;9.232;2023-12-04T08:30:34;1.70;92.90
20526;DHT22;10421;49.142;9.232;2023-12-04T08:33:00;1.60;92.60
20526;DHT22;10421;49.142;9.232;2023-12-04T08:35:28;1.60;92.40
20526;DHT22;10421;49.142;9.232;2023-12-04T08:37:55;1.60;92.40
20526;DHT22;10421;49.142;9.232;2023-12-04T08:40:23;1.50;92.10
20526;DHT22;10421;49.142;9.232;2023-12-04T08:42:49;1.50;92.00
20526;DHT22;10421;49.142;9.232;2023-12-04T08:45:16;1.40;91.90
20526;DHT22;10421;49.142;9.232;2023-12-04T08:47:44;1.40;91.90
20526;DHT22;10421;49.142;9.232;2023-12-04T08:50:11;1.40;91.90
20526;DHT22;10421;49.142;9.232;2023-12-04T08:52:38;1.50;91.90
20526;DHT22;10421;49.142;9.232;2023-12-04T08:55:07;1.50;91.80
20526;DHT22;10421;49.142;9.232;2023-12-04T08:57:35;1.60;91.80
20526;DHT22;10421;49.142;9.232;2023-12-04T09:00:02;1.70;91.90
20526;DHT22;10421;49.142;9.232;2023-12-04T09:02:29;1.70;91.90
20526;DHT22;10421;49.142;9.232;2023-12-04T09:04:56;1.80;91.90
20526;DHT22;10421;49.142;9.232;2023-12-04T09:07:22;1.90;91.90
20526;DHT22;10421;49.142;9.232;2023-12-04T09:09:49;2.00;91.80
20526;DHT22;10421;49.142;9.232;2023-12-04T09:12:16;2.00;91.80
20526;DHT22;10421;49.142;9.232;2023-12-04T09:14:44;2.10;91.80
20526;DHT22;10421;49.142;9.232;2023-12-04T09:17:11;2.20;91.70
20526;DHT22;10421;49.142;9.232;2023-12-04T09:19:38;2.30;91.70
20526;DHT22;10421;49.142;9.232;2023-12-04T09:22:05;2.30;91.60
20526;DHT22;10421;49.142;9.232;2023-12-04T09:24:31;2.40;91.50
20526;DHT22;10421;49.142;9.232;2023-12-04T09:26:58;2.40;91.50
20526;DHT22;10421;49.142;9.232;2023-12-04T09:29:25;2.50;91.50
20526;DHT22;10421;49.142;9.232;2023-12-04T09:31:53;2.50;91.40
20526;DHT22;10421;49.142;9.232;2023-12-04T09:34:20;2.60;91.40
20526;DHT22;10421;49.142;9.232;2023-12-04T09:36:48;2.60;91.30
20526;DHT22;10421;49.142;9.232;2023-12-04T09:39:14;2.60;91.30
20526;DHT22;10421;49.142;9.232;2023-12-04T09:41:42;2.70;91.30
20526;DHT22;10421;49.142;9.232;2023-12-04T09:44:10;2.70;91.10
20526;DHT22;10421;49.142;9.232;2023-12-04T09:46:38;2.70;91.00
20526;DHT22;10421;49.142;9.232;2023-12-04T09:49:06;2.70;91.00
20526;DHT22;10421;49.142;9.232;2023-12-04T09:51:33;2.70;91.10
20526;DHT22;10421;49.142;9.232;2023-12-04T09:54:02;2.70;91.00
20526;DHT22;10421;49.142;9.232;2023-12-04T09:56:30;2.70;91.00
20526;DHT22;10421;49.142;9.232;2023-12-04T09:58:59;2.70;91.00
20526;DHT22;10421;49.142;9.232;2023-12-04T10:01:27;2.70;91.00
20526;DHT22;10421;49.142;9.232;2023-12-04T10:03:56;2.70;91.00
20526;DHT22;10421;49.142;9.232;2023-12-04T10:06:26;2.80;91.00
20526;DHT22;10421;49.142;9.232;2023-12-04T10:08:54;2.90;91.10
20526;DHT22;10421;49.142;9.232;2023-12-04T10:11:22;2.90;91.10
20526;DHT22;10421;49.142;9.232;2023-12-04T10:13:49;3.00;91.00
20526;DHT22;10421;49.142;9.232;2023-12-04T10:16:31;3.10;91.00
20526;DHT22;10421;49.142;9.232;2023-12-04T10:19:14;3.10;91.00
20526;DHT22;10421;49.142;9.232;2023-12-04T10:21:44;3.10;90.90
20526;DHT22;10421;49.142;9.232;2023-12-04T10:24:11;3.10;90.70
20526;DHT22;10421;49.142;9.232;2023-12-04T10:26:49;3.00;90.30
20526;DHT22;10421;49.142;9.232;2023-12-04T10:29:17;3.00;90.40
20526;DHT22;10421;49.142;9.232;2023-12-04T10:31:44;3.00;90.40
20526;DHT22;10421;49.142;9.232;2023-12-04T10:34:13;3.00;90.40
20526;DHT22;10421;49.142;9.232;2023-12-04T10:36:40;3.00;90.50
20526;DHT22;10421;49.142;9.232;2023-12-04T10:39:08;3.10;90.60
20526;DHT22;10421;49.142;9.232;2023-12-04T10:41:38;3.10;90.60
20526;DHT22;10421;49.142;9.232;2023-12-04T10:44:05;3.10;90.60
20526;DHT22;10421;49.142;9.232;2023-12-04T10:46:32;3.10;90.60
20526;DHT22;10421;49.142;9.232;2023-12-04T10:49:02;3.10;90.60
20526;DHT22;10421;49.142;9.232;2023-12-04T10:51:30;3.20;90.60
20526;DHT22;10421;49.142;9.232;2023-12-04T10:53:57;3.20;90.60
20526;DHT22;10421;49.142;9.232;2023-12-04T10:56:30;3.20;90.60
20526;DHT22;10421;49.142;9.232;2023-12-04T10:58:58;3.30;90.60
20526;DHT22;10421;49.142;9.232;2023-12-04T11:01:27;3.30;90.60
20526;DHT22;10421;49.142;9.232;2023-12-04T11:03:56;3.40;90.60
20526;DHT22;10421;49.142;9.232;2023-12-04T11:06:25;3.50;90.70
20526;DHT22;10421;49.142;9.232;2023-12-04T11:08:56;3.50;91.10
20526;DHT22;10421;49.142;9.232;2023-12-04T11:11:27;3.60;90.90
20526;DHT22;10421;49.142;9.232;2023-12-04T11:14:01;3.60;90.90
20526;DHT22;10421;49.142;9.232;2023-12-04T11:16:30;3.70;90.90
20526;DHT22;10421;49.142;9.232;2023-12-04T11:19:02;3.70;91.00
20526;DHT22;10421;49.142;9.232;2023-12-04T11:21:32;3.70;91.00
20526;DHT22;10421;49.142;9.232;2023-12-04T11:24:00;3.80;91.10
20526;DHT22;10421;49.142;9.232;2023-12-04T11:26:29;3.80;91.10
20526;DHT22;10421;49.142;9.232;2023-12-04T11:28:57;3.80;91.20
20526;DHT22;10421;49.142;9.232;2023-12-04T11:31:24;3.90;91.30
20526;DHT22;10421;49.142;9.232;2023-12-04T11:33:51;3.90;91.40
20526;DHT22;10421;49.142;9.232;2023-12-04T11:36:17;3.90;91.50
20526;DHT22;10421;49.142;9.232;2023-12-04T11:38:45;3.90;91.60
20526;DHT22;10421;49.142;9.232;2023-12-04T11:41:16;3.90;91.70
20526;DHT22;10421;49.142;9.232;2023-12-04T11:43:45;3.90;91.70
20526;DHT22;10421;49.142;9.232;2023-12-04T11:46:13;3.90;91.70
20526;DHT22;10421;49.142;9.232;2023-12-04T11:48:40;4.00;91.90
20526;DHT22;10421;49.142;9.232;2023-12-04T11:51:08;4.00;92.10
20526;DHT22;10421;49.142;9.232;2023-12-04T11:53:37;3.90;92.30
20526;DHT22;10421;49.142;9.232;2023-12-04T11:56:09;3.90;92.50
20526;DHT22;10421;49.142;9.232;2023-12-04T11:58:42;3.80;92.60
20526;DHT22;10421;49.142;9.232;2023-12-04T12:01:10;3.80;92.80
20526;DHT22;10421;49.142;9.232;2023-12-04T12:03:37;3.80;92.90
20526;DHT22;10421;49.142;9.232;2023-12-04T12:06:05;3.80;93.10
20526;DHT22;10421;49.142;9.232;2023-12-04T12:08:32;3.90;93.30
20526;DHT22;10421;49.142;9.232;2023-12-04T12:10:59;3.90;93.30
20526;DHT22;10421;49.142;9.232;2023-12-04T12:13:26;3.80;93.40
20526;DHT22;10421;49.142;9.232;2023-12-04T12:15:52;3.80;93.60
20526;DHT22;10421;49.142;9.232;2023-12-04T12:18:22;3.70;93.80
20526;DHT22;10421;49.142;9.232;2023-12-04T12:20:49;3.70;94.00
20526;DHT22;10421;49.142;9.232;2023-12-04T12:23:16;3.70;94.20
20526;DHT22;10421;49.142;9.232;2023-12-04T12:25:43;3.60;94.50
20526;DHT22;10421;49.142;9.232;2023-12-04T12:28:10;3.60;94.80
20526;DHT22;10421;49.142;9.232;2023-12-04T12:30:37;3.60;95.10
20526;DHT22;10421;49.142;9.232;2023-12-04T12:33:04;3.60;95.40
20526;DHT22;10421;49.142;9.232;2023-12-04T12:35:32;3.60;95.60
20526;DHT22;10421;49.142;9.232;2023-12-04T12:37:59;3.50;95.70
20526;DHT22;10421;49.142;9.232;2023-12-04T12:40:28;3.50;95.80
20526;DHT22;10421;49.142;9.232;2023-12-04T12:43:03;3.50;95.90
20526;DHT22;10421;49.142;9.232;2023-12-04T12:45:38;3.50;96.00
20526;DHT22;10421;49.142;9.232;2023-12-04T12:48:05;3.40;96.20
20526;DHT22;10421;49.142;9.232;2023-12-04T12:50:33;3.40;96.30
20526;DHT22;10421;49.142;9.232;2023-12-04T12:53:01;3.50;96.50
20526;DHT22;10421;49.142;9.232;2023-12-04T12:55:28;3.50;96.70
20526;DHT22;10421;49.142;9.232;2023-12-04T12:57:55;3.50;96.90
20526;DHT22;10421;49.142;9.232;2023-12-04T13:00:22;3.50;97.10
20526;DHT22;10421;49.142;9.232;2023-12-04T13:02:51;3.50;97.10
20526;DHT22;10421;49.142;9.232;2023-12-04T13:05:18;3.50;97.20
20526;DHT22;10421;49.142;9.232;2023-12-04T13:07:46;3.50;97.40
20526;DHT22;10421;49.142;9.232;2023-12-04T13:10:13;3.50;97.40
20526;DHT22;10421;49.142;9.232;2023-12-04T13:12:40;3.50;97.60
20526;DHT22;10421;49.142;9.232;2023-12-04T13:15:07;3.50;97.70
20526;DHT22;10421;49.142;9.232;2023-12-04T13:17:34;3.60;97.80
20526;DHT22;10421;49.142;9.232;2023-12-04T13:20:01;3.60;97.90
20526;DHT22;10421;49.142;9.232;2023-12-04T13:22:29;3.60;98.00
20526;DHT22;10421;49.142;9.232;2023-12-04T13:24:59;3.70;98.10
20526;DHT22;10421;49.142;9.232;2023-12-04T13:27:27;3.70;98.20
20526;DHT22;10421;49.142;9.232;2023-12-04T13:29:54;3.80;98.20
20526;DHT22;10421;49.142;9.232;2023-12-04T13:32:21;3.80;98.30
20526;DHT22;10421;49.142;9.232;2023-12-04T13:34:47;3.90;98.30
20526;DHT22;10421;49.142;9.232;2023-12-04T13:37:14;3.90;98.30
20526;DHT22;10421;49.142;9.232;2023-12-04T13:39:41;3.90;98.40
20526;DHT22;10421;49.142;9.232;2023-12-04T13:42:15;4.00;98.30
20526;DHT22;10421;49.142;9.232;2023-12-04T13:45:00;4.00;98.40
20526;DHT22;10421;49.142;9.232;2023-12-04T13:47:27;4.00;98.60
20526;DHT22;10421;49.142;9.232;2023-12-04T13:49:54;3.90;98.70
20526;DHT22;10421;49.142;9.232;2023-12-04T13:52:21;3.80;98.90
20526;DHT22;10421;49.142;9.232;2023-12-04T13:54:48;3.80;99.00
20526;DHT22;10421;49.142;9.232;2023-12-04T13:57:18;3.80;99.10
20526;DHT22;10421;49.142;9.232;2023-12-04T13:59:47;3.80;99.10
20526;DHT22;10421;49.142;9.232;2023-12-04T14:02:14;3.90;99.20
20526;DHT22;10421;49.142;9.232;2023-12-04T14:04:41;3.90;99.20
20526;DHT22;10421;49.142;9.232;2023-12-04T14:07:07;4.00;99.30
20526;DHT22;10421;49.142;9.232;2023-12-04T14:09:35;4.10;99.40
20526;DHT22;10421;49.142;9.232;2023-12-04T14:12:02;4.10;99.40
20526;DHT22;10421;49.142;9.232;2023-12-04T14:14:31;4.20;99.40
20526;DHT22;10421;49.142;9.232;2023-12-04T14:16:58;4.20;99.40
20526;DHT22;10421;49.142;9.232;2023-12-04T14:19:26;4.30;99.40
20526;DHT22;10421;49.142;9.232;2023-12-04T14:21:53;4.30;99.50
20526;DHT22;10421;49.142;9.232;2023-12-04T14:24:19;4.30;99.60
20526;DHT22;10421;49.142;9.232;2023-12-04T14:26:47;4.30;99.60
20526;DHT22;10421;49.142;9.232;2023-12-04T14:29:13;4.20;99.60
20526;DHT22;10421;49.142;9.232;2023-12-04T14:31:41;4.20;99.70
20526;DHT22;10421;49.142;9.232;2023-12-04T14:34:08;4.20;99.80
20526;DHT22;10421;49.142;9.232;2023-12-04T14:36:35;4.20;99.90
20526;DHT22;10421;49.142;9.232;2023-12-04T14:39:04;4.10;99.90
20526;DHT22;10421;49.142;9.232;2023-12-04T14:41:31;4.10;99.90
20526;DHT22;10421;49.142;9.232;2023-12-04T14:43:57;4.10;99.90
20526;DHT22;10421;49.142;9.232;2023-12-04T14:46:25;4.10;99.90
20526;DHT22;10421;49.142;9.232;2023-12-04T14:48:53;4.10;99.90
20526;DHT22;10421;49.142;9.232;2023-12-04T14:51:20;4.10;99.90
20526;DHT22;10421;49.142;9.232;2023-12-04T14:53:47;4.20;99.90
20526;DHT22;10421;49.142;9.232;2023-12-04T14:56:16;4.30;99.90
20526;DHT22;10421;49.142;9.232;2023-12-04T14:58:50;4.30;99.90
20526;DHT22;10421;49.142;9.232;2023-12-04T15:01:48;4.30;99.90
20526;DHT22;10421;49.142;9.232;2023-12-04T15:04:33;4.40;99.90
20526;DHT22;10421;49.142;9.232;2023-12-04T15:07:32;4.30;99.90
20526;DHT22;10421;49.142;9.232;2023-12-04T15:10:20;4.30;99.90
20526;DHT22;10421;49.142;9.232;2023-12-04T15:13:14;4.40;99.90
20526;DHT22;10421;49.142;9.232;2023-12-04T15:16:07;4.40;99.90
20526;DHT22;10421;49.142;9.232;2023-12-04T15:18:50;4.40;99.90
20526;DHT22;10421;49.142;9.232;2023-12-04T15:21:47;4.40;99.90
20526;DHT22;10421;49.142;9.232;2023-12-04T15:24:13;4.40;99.90
20526;DHT22;10421;49.142;9.232;2023-12-04T15:26:40;4.50;99.90
20526;DHT22;10421;49.142;9.232;2023-12-04T15:29:05;4.50;99.90
20526;DHT22;10421;49.142;9.232;2023-12-04T15:31:33;4.50;99.90
20526;DHT22;10421;49.142;9.232;2023-12-04T15:33:59;4.50;99.90
20526;DHT22;10421;49.142;9.232;2023-12-04T15:36:25;4.50;99.90
20526;DHT22;10421;49.142;9.232;2023-12-04T15:38:52;4.50;99.90
20526;DHT22;10421;49.142;9.232;2023-12-04T15:41:19;4.50;99.90
20526;DHT22;10421;49.142;9.232;2023-12-04T15:43:46;4.50;99.90
20526;DHT22;10421;49.142;9.232;2023-12-04T15:46:14;4.50;99.90
20526;DHT22;10421;49.142;9.232;2023-12-04T15:48:40;4.50;99.90